Time;durP1;ratioP1;P1;durP2;ratioP2;P2;SDS_P1;SDS_P2;PMS_P1;PMS_P2;Temp;Humidity;BMP_temperature;BMP_pressure;BME280_temperature;BME280_humidity;BME280_pressure;Samples;Min_cycle;Max_cycle;Signal;HPM_P1;HPM_P2
2023/04/29 00:01:23;;;;;;;;;;;;;;;17.74;53.19;100307.24;2342095;75;50326;-74
2023/04/29 00:04:25;;;;;;;;;;;;;;;17.74;53.21;100311.25;2336446;75;50385;-74
2023/04/29 00:07:27;;;;;;;;;;;;;;;17.75;53.17;100307.58;2289684;76;51579;-74
2023/04/29 00:10:28;;;;;;;;;;;;;;;17.74;53.18;100305.91;2304959;76;50282;-74
2023/04/29 00:13:30;;;;;;;;;;;;;;;17.74;53.18;100292.52;2337724;76;50044;-74
2023/04/29 00:16:32;;;;;;;;;;;;;;;17.75;53.19;100298.70;2337702;76;50248;-74
2023/04/29 00:19:33;;;;;;;;;;;;;;;17.73;53.20;100288.20;2314195;76;51786;-75
2023/04/29 00:22:35;;;;;;;;;;;;;;;17.74;53.20;100273.80;2342094;75;50308;-74
2023/04/29 00:25:37;;;;;;;;;;;;;;;17.73;53.22;100273.48;2337229;76;50827;-75
2023/04/29 00:28:39;;;;;;;;;;;;;;;17.73;53.22;100282.84;2337048;75;51461;-74
2023/04/29 00:31:41;;;;;;;;;;;;;;;17.73;53.22;100277.50;2313527;76;52941;-74
2023/04/29 00:34:43;;;;;;;;;;;;;;;17.73;53.20;100272.66;2331140;76;50724;-74
2023/04/29 00:37:44;;;;;;;;;;;;;;;17.75;53.19;100271.94;2306877;75;50436;-75
2023/04/29 00:40:46;;;;;;;;;;;;;;;17.74;53.18;100275.13;2276720;77;50682;-74
2023/04/29 00:43:48;;;;;;;;;;;;;;;17.74;53.19;100279.66;2276537;76;50200;-75
2023/04/29 00:46:49;;;;;;;;;;;;;;;17.75;53.24;100279.97;2297979;77;50305;-74
2023/04/29 00:49:51;;;;;;;;;;;;;;;17.74;53.24;100279.14;2298038;77;50695;-74
2023/04/29 00:52:52;;;;;;;;;;;;;;;17.73;53.23;100284.70;2298026;77;51444;-74
2023/04/29 00:55:54;;;;;;;;;;;;;;;17.74;53.21;100278.32;2276475;77;51584;-75
2023/04/29 00:58:56;;;;;;;;;;;;;;;17.73;53.24;100278.02;2298246;77;50349;-75
2023/04/29 01:02:02;;;;;;;;;;;;;;;17.73;53.24;100282.84;2298320;77;51862;-74
2023/04/29 01:05:03;;;;;;;;;;;;;;;17.74;53.24;100288.51;2285272;76;51922;-75
2023/04/29 01:08:07;;;;;;;;;;;;;;;17.74;53.25;100290.36;2322506;75;52469;-74
2023/04/29 01:11:09;;;;;;;;;;;;;;;17.74;53.25;100298.39;2338346;75;51572;-74
2023/04/29 01:14:11;;;;;;;;;;;;;;;17.73;53.23;100294.89;2338222;76;51527;-74
2023/04/29 01:17:14;;;;;;;;;;;;;;;17.73;53.24;100273.48;2338334;76;50751;-74
2023/04/29 01:20:16;;;;;;;;;;;;;;;17.73;53.24;100261.95;2316026;76;51827;-74
2023/04/29 01:23:17;;;;;;;;;;;;;;;17.73;53.24;100253.93;2337495;76;51478;-73
2023/04/29 01:26:19;;;;;;;;;;;;;;;17.74;53.24;100259.59;2341909;75;50278;-73
2023/04/29 01:29:24;;;;;;;;;;;;;;;17.74;53.25;100267.10;2337446;76;50455;-74
2023/04/29 01:32:27;;;;;;;;;;;;;;;17.73;53.25;100268.13;2320680;76;22436;-74
2023/04/29 01:35:36;;;;;;;;;;;;;;;17.74;53.25;100269.78;2330592;76;51682;-74
2023/04/29 01:38:49;;;;;;;;;;;;;;;17.73;53.28;100276.16;2297802;77;50299;-74
2023/04/29 01:41:54;;;;;;;;;;;;;;;17.74;53.25;100279.66;2298039;76;51386;-74
2023/04/29 01:44:55;;;;;;;;;;;;;;;17.74;53.24;100266.28;2276511;77;52334;-73
2023/04/29 01:47:57;;;;;;;;;;;;;;;17.72;53.25;100269.12;2298116;77;51447;-74
2023/04/29 01:51:00;;;;;;;;;;;;;;;17.73;53.27;100270.80;2298125;77;50465;-73
2023/04/29 01:54:04;;;;;;;;;;;;;;;17.73;53.27;100266.80;2276877;77;51568;-73
2023/04/29 01:57:05;;;;;;;;;;;;;;;17.73;53.27;100260.62;2298470;77;23249;-72
2023/04/29 02:00:07;;;;;;;;;;;;;;;17.73;53.28;100267.31;2277073;77;50755;-74
2023/04/29 02:03:09;;;;;;;;;;;;;;;17.72;53.29;100262.95;2298223;77;51552;-74
2023/04/29 02:06:11;;;;;;;;;;;;;;;17.72;53.28;100260.28;2311058;76;50692;-74
2023/04/29 02:09:12;;;;;;;;;;;;;;;17.73;53.30;100264.12;2275153;77;51771;-74
2023/04/29 02:12:14;;;;;;;;;;;;;;;17.73;53.28;100257.94;2276863;77;51624;-73
2023/04/29 02:15:16;;;;;;;;;;;;;;;17.73;53.30;100258.77;2297803;77;51518;-75
2023/04/29 02:18:18;;;;;;;;;;;;;;;17.74;53.28;100255.58;2277027;77;50587;-74
2023/04/29 02:21:19;;;;;;;;;;;;;;;17.73;53.28;100259.28;2251594;77;51143;-74
2023/04/29 02:24:21;;;;;;;;;;;;;;;17.73;53.30;100262.78;2276679;77;50497;-75
2023/04/29 02:27:23;;;;;;;;;;;;;;;17.73;53.25;100253.93;2297927;77;50781;-74
2023/04/29 02:30:24;;;;;;;;;;;;;;;17.73;53.29;100251.25;2298018;77;50276;-75
2023/04/29 02:33:26;;;;;;;;;;;;;;;17.73;53.30;100249.91;2276839;77;51735;-74
2023/04/29 02:36:27;;;;;;;;;;;;;;;17.73;53.29;100245.39;2299045;76;51520;-74
2023/04/29 02:39:29;;;;;;;;;;;;;;;17.72;53.32;100245.56;2276578;77;50792;-74
2023/04/29 02:42:31;;;;;;;;;;;;;;;17.73;53.28;100244.56;2298199;77;50744;-74
2023/04/29 02:45:32;;;;;;;;;;;;;;;17.73;53.30;100245.39;2251617;77;51685;-74
2023/04/29 02:48:34;;;;;;;;;;;;;;;17.73;53.34;100245.90;2251504;76;51747;-74
2023/04/29 02:51:36;;;;;;;;;;;;;;;17.72;53.32;100247.72;2297991;76;51466;-73
2023/04/29 02:54:37;;;;;;;;;;;;;;;17.72;53.31;100238.88;2276427;77;50730;-74
2023/04/29 02:57:40;;;;;;;;;;;;;;;17.75;53.28;100242.50;2251668;77;52400;-73
2023/04/29 03:00:41;;;;;;;;;;;;;;;17.72;53.32;100242.88;2298094;76;50713;-74
2023/04/29 03:03:43;;;;;;;;;;;;;;;17.73;53.31;100248.06;2297833;76;50789;-74
2023/04/29 03:06:44;;;;;;;;;;;;;;;17.73;53.31;100240.55;2320763;76;50273;-74
2023/04/29 03:09:46;;;;;;;;;;;;;;;17.74;53.31;100242.20;2341753;75;51055;-75
2023/04/29 03:12:48;;;;;;;;;;;;;;;17.72;53.33;100233.52;2341914;75;50254;-74
2023/04/29 03:15:49;;;;;;;;;;;;;;;17.73;53.33;100241.38;2337273;75;50479;-74
2023/04/29 03:18:51;;;;;;;;;;;;;;;17.73;53.34;100239.21;2341809;75;50763;-74
2023/04/29 03:21:52;;;;;;;;;;;;;;;17.72;53.37;100236.20;2341747;75;51741;-73
2023/04/29 03:24:54;;;;;;;;;;;;;;;17.71;53.35;100240.72;2341580;76;52384;-74
2023/04/29 03:27:56;;;;;;;;;;;;;;;17.73;53.34;100236.53;2337563;75;50686;-75
2023/04/29 03:30:58;;;;;;;;;;;;;;;17.73;53.32;100231.19;2337618;75;50758;-74
2023/04/29 03:33:59;;;;;;;;;;;;;;;17.73;53.34;100227.17;2302908;76;49671;-73
2023/04/29 03:37:01;;;;;;;;;;;;;;;17.72;53.37;100232.18;2314375;76;50458;-74
2023/04/29 03:40:03;;;;;;;;;;;;;;;17.72;53.33;100232.18;2341627;75;51529;-74
2023/04/29 03:43:05;;;;;;;;;;;;;;;17.73;53.31;100235.20;2337383;76;51362;-74
2023/04/29 03:46:07;;;;;;;;;;;;;;;17.73;53.35;100230.67;2341826;75;50215;-75
2023/04/29 03:49:08;;;;;;;;;;;;;;;17.72;53.34;100230.33;2337249;76;50656;-75
2023/04/29 03:52:11;;;;;;;;;;;;;;;17.72;53.36;100235.68;2341840;75;50800;-75
2023/04/29 03:55:13;;;;;;;;;;;;;;;17.72;53.35;100230.33;2337000;75;51555;-74
2023/04/29 03:58:14;;;;;;;;;;;;;;;17.71;53.37;100231.88;2337460;75;50755;-74
2023/04/29 04:01:16;;;;;;;;;;;;;;;17.73;53.36;100232.52;2341732;75;51431;-75
2023/04/29 04:04:17;;;;;;;;;;;;;;;17.71;53.37;100233.21;2333439;76;50514;-74
2023/04/29 04:07:19;;;;;;;;;;;;;;;17.72;53.38;100237.02;2323407;76;51505;-74
2023/04/29 04:10:21;;;;;;;;;;;;;;;17.72;53.36;100234.34;2276568;76;51819;-75
2023/04/29 04:13:22;;;;;;;;;;;;;;;17.72;53.37;100230.84;2276791;77;51484;-74
2023/04/29 04:16:24;;;;;;;;;;;;;;;17.72;53.38;100237.02;2276526;77;50190;-74
2023/04/29 04:19:27;;;;;;;;;;;;;;;17.72;53.40;100246.90;2276847;77;50727;-74
2023/04/29 04:22:29;;;;;;;;;;;;;;;17.72;53.38;100241.03;2252089;76;52609;-74
2023/04/29 04:25:31;;;;;;;;;;;;;;;17.73;53.37;100243.23;2297992;76;50295;-74
2023/04/29 04:28:32;;;;;;;;;;;;;;;17.73;53.37;100238.70;2276909;76;50281;-74
2023/04/29 04:31:35;;;;;;;;;;;;;;;17.72;53.38;100245.05;2276892;77;51426;-74
2023/04/29 04:34:38;;;;;;;;;;;;;;;17.73;53.37;100239.21;2284652;76;51774;-74
2023/04/29 04:37:39;;;;;;;;;;;;;;;17.73;53.37;100247.23;2336670;75;50490;-74
2023/04/29 04:40:41;;;;;;;;;;;;;;;17.72;53.39;100241.55;2301247;76;50425;-75
2023/04/29 04:43:43;;;;;;;;;;;;;;;17.72;53.38;100247.72;2335127;76;51649;-74
2023/04/29 04:46:45;;;;;;;;;;;;;;;17.74;53.38;100249.71;2300914;76;52754;-75
2023/04/29 04:49:48;;;;;;;;;;;;;;;17.71;53.41;100243.91;2335348;76;50799;-74
2023/04/29 04:52:50;;;;;;;;;;;;;;;17.73;53.38;100244.56;2301602;76;50391;-74
2023/04/29 04:55:51;;;;;;;;;;;;;;;17.72;53.39;100249.58;2301057;76;50489;-73
2023/04/29 04:58:53;;;;;;;;;;;;;;;17.72;53.39;100245.05;2300876;76;51730;-74
2023/04/29 05:01:55;;;;;;;;;;;;;;;17.72;53.40;100254.41;2301001;76;51453;-73
2023/04/29 05:04:56;;;;;;;;;;;;;;;17.72;53.40;100246.90;2295766;76;50696;-74
2023/04/29 05:07:58;;;;;;;;;;;;;;;17.73;53.40;100253.41;2300399;76;51436;-74
2023/04/29 05:10:59;;;;;;;;;;;;;;;17.72;53.42;100254.92;2287048;76;52357;-75
2023/04/29 05:14:01;;;;;;;;;;;;;;;17.72;53.42;100258.42;2312388;76;50772;-75
2023/04/29 05:17:03;;;;;;;;;;;;;;;17.73;53.42;100248.58;2344712;76;52485;-75
2023/04/29 05:20:05;;;;;;;;;;;;;;;17.73;53.43;100257.94;2312480;76;51537;-75
2023/04/29 05:23:07;;;;;;;;;;;;;;;17.74;53.42;100256.91;2312342;76;51042;-75
2023/04/29 05:26:09;;;;;;;;;;;;;;;17.73;53.43;100256.60;2312717;76;50340;-75
2023/04/29 05:29:11;;;;;;;;;;;;;;;17.73;53.42;100260.62;2312626;76;50380;-75
2023/04/29 05:32:12;;;;;;;;;;;;;;;17.73;53.43;100253.93;2344674;76;51548;-75
2023/04/29 05:35:14;;;;;;;;;;;;;;;17.71;53.42;100259.45;2288021;76;51433;-74
2023/04/29 05:38:16;;;;;;;;;;;;;;;17.73;53.40;100264.63;2303998;76;50678;-75
2023/04/29 05:41:18;;;;;;;;;;;;;;;17.73;53.43;100265.45;2340997;75;51786;-76
2023/04/29 05:44:19;;;;;;;;;;;;;;;17.74;53.41;100262.27;2336418;76;51512;-74
2023/04/29 05:47:21;;;;;;;;;;;;;;;17.73;53.44;100275.34;2341008;75;51280;-75
2023/04/29 05:50:23;;;;;;;;;;;;;;;17.73;53.43;100265.45;2336532;76;50286;-73
2023/04/29 05:53:24;;;;;;;;;;;;;;;17.73;53.42;100267.31;2336534;76;50129;-74
2023/04/29 05:56:26;;;;;;;;;;;;;;;17.74;53.43;100272.45;2336389;75;51541;-75
2023/04/29 05:59:33;;;;;;;;;;;;;;;17.74;53.42;100274.30;2314432;76;52375;-75
2023/04/29 06:02:33;;;;;;;;;;;;;;;17.73;53.44;100276.16;2335549;76;22184;-75
2023/04/29 06:05:34;;;;;;;;;;;;;;;17.73;53.44;100277.50;2318119;75;50346;-74
2023/04/29 06:08:36;;;;;;;;;;;;;;;17.75;53.40;100277.30;2335873;76;51584;-73
2023/04/29 06:11:37;;;;;;;;;;;;;;;17.74;53.44;100281.00;2314219;76;50578;-75
2023/04/29 06:14:39;;;;;;;;;;;;;;;17.74;53.42;100279.66;2340625;75;50390;-75
2023/04/29 06:17:41;;;;;;;;;;;;;;;17.73;53.44;100284.70;2336495;76;50301;-75
2023/04/29 06:20:42;;;;;;;;;;;;;;;17.73;53.46;100287.38;2340914;75;50448;-75
2023/04/29 06:23:44;;;;;;;;;;;;;;;17.73;53.47;100287.38;2340730;75;51182;-75
2023/04/29 06:26:45;;;;;;;;;;;;;;;17.74;53.45;100288.51;2341051;75;52262;-73
2023/04/29 06:29:47;;;;;;;;;;;;;;;17.73;53.46;100298.08;2336724;76;50400;-74
2023/04/29 06:32:49;;;;;;;;;;;;;;;17.75;53.44;100297.36;2341019;75;51516;-74
2023/04/29 06:35:50;;;;;;;;;;;;;;;17.72;53.47;100294.55;2285192;76;51634;-74
2023/04/29 06:38:52;;;;;;;;;;;;;;;17.72;53.49;100299.08;2324470;75;50401;-72
2023/04/29 06:41:54;;;;;;;;;;;;;;;17.73;53.50;100298.91;2297079;76;51510;-74
2023/04/29 06:44:55;;;;;;;;;;;;;;;17.73;53.50;100308.27;2296935;77;51567;-75
2023/04/29 06:47:57;;;;;;;;;;;;;;;17.74;53.49;100301.06;2275585;77;52439;-74
2023/04/29 06:50:58;;;;;;;;;;;;;;;17.73;53.49;100302.09;2275743;77;51335;-75
2023/04/29 06:54:00;;;;;;;;;;;;;;;17.73;53.50;100308.27;2296757;77;51583;-76
2023/04/29 06:57:02;;;;;;;;;;;;;;;17.75;53.50;100316.09;2297035;76;51421;-74
2023/04/29 07:00:03;;;;;;;;;;;;;;;17.75;53.49;100316.09;2297117;77;51555;-73
2023/04/29 07:03:05;;;;;;;;;;;;;;;17.74;53.51;100315.78;2296997;76;52328;-74
2023/04/29 07:06:07;;;;;;;;;;;;;;;17.74;53.51;100325.97;2309950;76;50397;-75
2023/04/29 07:09:08;;;;;;;;;;;;;;;17.76;53.48;100325.80;2308722;76;50685;-74
2023/04/29 07:12:10;;;;;;;;;;;;;;;17.74;53.50;100320.62;2340865;75;52560;-74
2023/04/29 07:15:12;;;;;;;;;;;;;;;17.74;53.51;100331.33;2336262;76;51585;-74
2023/04/29 07:18:13;;;;;;;;;;;;;;;17.73;53.54;100327.00;2336459;76;51436;-74
2023/04/29 07:21:15;;;;;;;;;;;;;;;17.74;53.55;100330.50;2336544;76;51583;-72
2023/04/29 07:24:16;;;;;;;;;;;;;;;17.74;53.53;100339.87;2313690;76;49550;-74
2023/04/29 07:27:18;;;;;;;;;;;;;;;17.75;53.52;100341.52;2336348;76;50429;-74
2023/04/29 07:30:19;;;;;;;;;;;;;;;17.76;53.54;100347.20;2341031;75;50736;-73
2023/04/29 07:33:21;;;;;;;;;;;;;;;17.75;53.54;100348.20;2336418;75;50661;-74
2023/04/29 07:36:23;;;;;;;;;;;;;;;17.74;53.57;100349.23;2280807;76;51298;-74
2023/04/29 07:39:25;;;;;;;;;;;;;;;17.74;53.56;100356.75;2275436;77;51727;-75
2023/04/29 07:42:26;;;;;;;;;;;;;;;17.75;53.57;100361.59;2275689;77;50645;-74
2023/04/29 07:45:28;;;;;;;;;;;;;;;17.74;53.58;100366.11;2296813;77;51527;-75
2023/04/29 07:48:29;;;;;;;;;;;;;;;17.76;53.56;100375.31;2239006;77;51082;-74
2023/04/29 07:51:31;;;;;;;;;;;;;;;17.74;53.58;100374.14;2296962;77;51482;-74
2023/04/29 07:54:33;;;;;;;;;;;;;;;17.75;53.58;100377.64;2275477;77;51689;-77
2023/04/29 07:57:35;;;;;;;;;;;;;;;17.75;53.60;100386.53;2296985;76;50743;-75
2023/04/29 08:00:37;;;;;;;;;;;;;;;17.75;53.58;100387.01;2275772;77;51278;-75
2023/04/29 08:03:39;;;;;;;;;;;;;;;17.76;53.58;100391.37;2275858;77;51731;-75
2023/04/29 08:06:40;;;;;;;;;;;;;;;17.76;53.58;100395.38;2322079;76;50749;-74
2023/04/29 08:09:42;;;;;;;;;;;;;;;17.75;53.58;100408.41;2275775;77;50247;-75
2023/04/29 08:12:46;;;;;;;;;;;;;;;17.76;53.56;100409.59;2297017;77;50778;-73
2023/04/29 08:15:48;;;;;;;;;;;;;;;17.75;53.58;100417.30;2296810;77;50375;-74
2023/04/29 08:18:49;;;;;;;;;;;;;;;17.75;53.59;100423.13;2275611;77;50695;-75
2023/04/29 08:21:51;;;;;;;;;;;;;;;17.77;53.57;100433.16;2296935;76;50251;-73
2023/04/29 08:24:53;;;;;;;;;;;;;;;17.75;53.60;100435.17;2250540;77;52391;-76
2023/04/29 08:27:54;;;;;;;;;;;;;;;17.75;53.60;100446.73;2297123;76;50297;-76
2023/04/29 08:30:56;;;;;;;;;;;;;;;17.76;53.60;100451.06;2297117;77;51544;-75
2023/04/29 08:33:58;;;;;;;;;;;;;;;17.76;53.62;100459.61;2296914;76;51595;-74
2023/04/29 08:36:59;;;;;;;;;;;;;;;17.75;53.60;100460.59;2273606;77;54307;-77
2023/04/29 08:40:02;;;;;;;;;;;;;;;17.75;53.62;100466.81;2297017;77;51443;-74
2023/04/29 08:43:04;;;;;;;;;;;;;;;17.77;53.62;100477.31;2297015;77;51551;-76
2023/04/29 08:46:05;;;;;;;;;;;;;;;17.77;53.60;100478.65;2296902;77;50398;-75
2023/04/29 08:49:07;;;;;;;;;;;;;;;17.75;53.65;100488.22;2275618;76;51693;-73
2023/04/29 08:52:08;;;;;;;;;;;;;;;17.77;53.61;100490.70;2297178;77;51459;-75
2023/04/29 08:55:10;;;;;;;;;;;;;;;17.76;53.63;100491.72;2296884;77;50755;-75
2023/04/29 08:58:12;;;;;;;;;;;;;;;17.76;53.64;100493.06;2275859;77;50661;-73
2023/04/29 09:01:14;;;;;;;;;;;;;;;17.76;53.63;100500.57;2275605;77;51338;-74
2023/04/29 09:04:17;;;;;;;;;;;;;;;17.76;53.65;100505.09;2300446;76;50475;-75
2023/04/29 09:07:18;;;;;;;;;;;;;;;17.76;53.66;100511.80;2298221;75;50322;-75
2023/04/29 09:10:20;;;;;;;;;;;;;;;17.76;53.66;100519.30;2295797;77;50261;-75
2023/04/29 09:13:24;;;;;;;;;;;;;;;17.76;53.66;100526.51;2299770;77;52484;-75
2023/04/29 09:16:25;;;;;;;;;;;;;;;17.75;53.69;100534.19;2294629;77;51565;-75
2023/04/29 09:19:29;;;;;;;;;;;;;;;17.75;53.68;100536.39;2295302;77;51492;-75
2023/04/29 09:22:32;;;;;;;;;;;;;;;17.75;53.67;100535.05;2299533;77;51545;-75
2023/04/29 09:25:35;;;;;;;;;;;;;;;17.76;53.68;100538.55;2273591;77;52429;-74
2023/04/29 09:28:38;;;;;;;;;;;;;;;17.76;53.66;100550.08;2299446;77;50371;-75
2023/04/29 09:31:40;;;;;;;;;;;;;;;17.75;53.67;100545.75;2299438;77;51555;-76
2023/04/29 09:34:42;;;;;;;;;;;;;;;17.75;53.69;100555.13;2299039;76;50322;-75
2023/04/29 09:37:44;;;;;;;;;;;;;;;17.76;53.70;100562.64;2323154;75;51113;-75
2023/04/29 09:40:45;;;;;;;;;;;;;;;17.76;53.67;100559.96;2297087;77;51482;-75
2023/04/29 09:43:48;;;;;;;;;;;;;;;17.76;53.66;100564.80;2297002;77;50354;-74
2023/04/29 09:46:58;;;;;;;;;;;;;;;17.75;53.69;100571.18;2296370;76;50301;-75
2023/04/29 09:50:02;;;;;;;;;;;;;;;17.75;53.74;100578.34;2275910;77;49501;-76
2023/04/29 09:53:04;;;;;;;;;;;;;;;17.75;53.67;100583.22;2295948;77;51766;-74
2023/04/29 09:56:06;;;;;;;;;;;;;;;17.76;53.67;100585.38;2296875;77;50314;-75
2023/04/29 09:59:08;;;;;;;;;;;;;;;17.76;53.70;100599.59;2275830;77;51577;-74
2023/04/29 10:02:18;;;;;;;;;;;;;;;17.75;53.74;100594.41;2250922;77;51850;-76
2023/04/29 10:05:17;;;;;;;;;;;;;;;17.75;53.73;100605.11;2280290;76;23085;-74
2023/04/29 10:08:18;;;;;;;;;;;;;;;17.74;53.74;100613.66;2310234;76;52300;-76
2023/04/29 10:11:20;;;;;;;;;;;;;;;17.74;53.75;100616.84;2297198;76;51520;-77
2023/04/29 10:14:23;;;;;;;;;;;;;;;17.76;53.71;100628.20;2263854;77;51724;-74
2023/04/29 10:17:42;;;;;;;;;;;;;;;17.75;53.73;100621.17;2297539;77;51667;-76
2023/04/29 10:20:46;;;;;;;;;;;;;;;17.77;53.67;100629.86;2297252;76;51623;-74
2023/04/29 10:23:47;;;;;;;;;;;;;;;17.76;53.72;100632.22;2296931;77;50083;-75
2023/04/29 10:26:50;;;;;;;;;;;;;;;17.76;53.70;100635.72;2263670;76;51518;-75
2023/04/29 10:29:51;;;;;;;;;;;;;;;17.77;53.70;100637.37;2297207;77;51584;-79
2023/04/29 10:32:53;;;;;;;;;;;;;;;17.76;53.71;100637.06;2297047;77;50761;-74
2023/04/29 10:35:55;;;;;;;;;;;;;;;17.76;53.74;100637.06;2316077;76;50702;-74
2023/04/29 10:38:58;;;;;;;;;;;;;;;17.76;53.72;100639.73;2278752;77;51635;-75
2023/04/29 10:41:59;;;;;;;;;;;;;;;17.77;53.70;100635.21;2297164;76;50448;-74
2023/04/29 10:45:18;;;;;;;;;;;;;;;17.77;53.71;100648.59;2296946;76;50063;-76
2023/04/29 10:48:23;;;;;;;;;;;;;;;17.77;53.71;100643.23;2296618;76;50419;-74
2023/04/29 10:51:34;;;;;;;;;;;;;;;17.76;53.74;100657.64;2276155;77;22361;-75
2023/04/29 10:54:32;;;;;;;;;;;;;;;17.77;53.72;100661.97;2295892;76;22494;-74
2023/04/29 10:57:34;;;;;;;;;;;;;;;17.77;53.72;100661.97;2297213;77;50078;-75
2023/04/29 11:00:37;;;;;;;;;;;;;;;17.77;53.75;100670.00;2275963;77;50510;-74
2023/04/29 11:03:58;;;;;;;;;;;;;;;17.78;53.70;100667.67;2250970;77;51055;-75
2023/04/29 11:07:01;;;;;;;;;;;;;;;17.77;53.72;100677.52;2322617;76;51489;-76
2023/04/29 11:10:03;;;;;;;;;;;;;;;17.77;53.74;100680.20;2300592;76;50516;-75
2023/04/29 11:13:21;;;;;;;;;;;;;;;17.76;53.77;100679.05;2300154;76;51885;-76
2023/04/29 11:16:27;;;;;;;;;;;;;;;17.76;53.77;100681.73;2299739;76;49646;-75
2023/04/29 11:19:31;;;;;;;;;;;;;;;17.79;53.70;100681.37;2334695;76;22338;-75
2023/04/29 11:22:33;;;;;;;;;;;;;;;17.80;53.68;100680.38;2300563;76;50812;-76
2023/04/29 11:25:35;;;;;;;;;;;;;;;17.79;53.71;100685.39;2300142;76;50462;-75
2023/04/29 11:28:37;;;;;;;;;;;;;;;17.79;53.72;100702.78;2334610;76;51570;-75
2023/04/29 11:31:38;;;;;;;;;;;;;;;17.77;53.74;100688.22;2334892;76;50048;-74
2023/04/29 11:34:40;;;;;;;;;;;;;;;17.79;53.72;100701.44;2301674;76;50293;-75
2023/04/29 11:37:42;;;;;;;;;;;;;;;17.78;53.72;100693.92;2337043;75;50736;-75
2023/04/29 11:40:49;;;;;;;;;;;;;;;17.79;53.72;100714.34;2275956;76;51657;-73
2023/04/29 11:43:55;;;;;;;;;;;;;;;17.80;53.72;100703.12;2301399;76;51503;-73
2023/04/29 11:47:06;;;;;;;;;;;;;;;17.81;53.69;100707.49;2337823;76;50839;-74
2023/04/29 11:50:09;;;;;;;;;;;;;;;17.82;53.65;100711.82;2337843;75;50328;-75
2023/04/29 11:53:11;;;;;;;;;;;;;;;17.83;53.65;100714.84;2313895;76;50179;-74
2023/04/29 11:56:12;;;;;;;;;;;;;;;17.84;53.61;100721.34;2337847;76;50407;-75
2023/04/29 11:59:14;;;;;;;;;;;;;;;17.83;53.65;100719.69;2341013;75;50421;-75
2023/04/29 12:02:15;;;;;;;;;;;;;;;17.82;53.67;100730.05;2336903;76;50661;-76
2023/04/29 12:05:17;;;;;;;;;;;;;;;17.83;53.69;100725.55;2310484;76;52448;-76
2023/04/29 12:08:20;;;;;;;;;;;;;;;17.83;53.70;100729.05;2314068;75;51270;-76
2023/04/29 12:11:23;;;;;;;;;;;;;;;17.86;53.63;100725.70;2275766;77;50720;-75
2023/04/29 12:14:25;;;;;;;;;;;;;;;17.85;53.63;100734.22;2296824;77;51575;-76
2023/04/29 12:17:27;;;;;;;;;;;;;;;17.86;53.66;100732.40;2296980;76;50720;-76
2023/04/29 12:20:28;;;;;;;;;;;;;;;17.85;53.69;100734.22;2275745;77;51688;-75
2023/04/29 12:23:30;;;;;;;;;;;;;;;17.84;53.70;100745.94;2297043;76;51482;-74
2023/04/29 12:26:32;;;;;;;;;;;;;;;17.82;53.72;100747.95;2296813;77;51562;-74
2023/04/29 12:29:35;;;;;;;;;;;;;;;17.82;53.73;100755.98;2275888;77;50373;-76
2023/04/29 12:32:36;;;;;;;;;;;;;;;17.82;53.74;100750.63;2275788;77;50915;-75
2023/04/29 12:35:38;;;;;;;;;;;;;;;17.82;53.75;100758.16;2292779;76;51458;-76
2023/04/29 12:38:40;;;;;;;;;;;;;;;17.81;53.77;100757.84;2310462;76;50314;-75
2023/04/29 12:41:41;;;;;;;;;;;;;;;17.81;53.76;100762.36;2342661;75;50200;-76
2023/04/29 12:44:48;;;;;;;;;;;;;;;17.80;53.81;100770.04;2342120;75;52370;-76
2023/04/29 12:47:50;;;;;;;;;;;;;;;17.82;53.74;100768.03;2342256;75;50789;-75
2023/04/29 12:50:52;;;;;;;;;;;;;;;17.82;53.75;100765.36;2342712;75;50367;-74
2023/04/29 12:53:53;;;;;;;;;;;;;;;17.83;53.71;100761.17;2337716;76;50305;-74
2023/04/29 12:56:56;;;;;;;;;;;;;;;17.84;53.69;100764.68;2342180;75;51782;-74
2023/04/29 12:59:57;;;;;;;;;;;;;;;17.85;53.70;100769.02;2337882;75;50739;-75
2023/04/29 13:02:59;;;;;;;;;;;;;;;17.85;53.72;100766.34;2342425;76;50294;-74
2023/04/29 13:06:01;;;;;;;;;;;;;;;17.87;53.68;100770.19;2331338;76;50259;-75
2023/04/29 13:09:03;;;;;;;;;;;;;;;17.86;53.69;100770.70;2278968;77;51744;-75
2023/04/29 13:12:08;;;;;;;;;;;;;;;17.86;53.70;100772.04;2276973;76;51443;-75
2023/04/29 13:15:09;;;;;;;;;;;;;;;17.87;53.68;100768.85;2298367;77;21888;-75
2023/04/29 13:18:10;;;;;;;;;;;;;;;17.87;53.72;100772.36;2298372;76;51584;-73
2023/04/29 13:21:12;;;;;;;;;;;;;;;17.89;53.69;100781.56;2277077;77;51766;-75
2023/04/29 13:24:16;;;;;;;;;;;;;;;17.90;53.65;100776.52;2276680;76;50719;-77
2023/04/29 13:27:17;;;;;;;;;;;;;;;17.90;53.65;100785.38;2298635;76;22721;-75
2023/04/29 13:30:18;;;;;;;;;;;;;;;17.90;53.65;100780.54;2277181;76;50525;-75
2023/04/29 13:33:20;;;;;;;;;;;;;;;17.90;53.68;100789.40;2277075;77;51666;-75
2023/04/29 13:36:21;;;;;;;;;;;;;;;17.90;53.65;100785.38;2301038;75;50673;-75
2023/04/29 13:39:23;;;;;;;;;;;;;;;17.91;53.65;100790.26;2298559;75;51449;-74
2023/04/29 13:42:25;;;;;;;;;;;;;;;17.92;53.63;100791.41;2297894;77;51520;-76
2023/04/29 13:45:27;;;;;;;;;;;;;;;17.91;53.67;100791.59;2276984;77;50897;-74
2023/04/29 13:48:28;;;;;;;;;;;;;;;17.91;53.67;100803.13;2277338;77;50007;-75
2023/04/29 13:51:30;;;;;;;;;;;;;;;17.92;53.65;100795.93;2277157;77;51634;-74
2023/04/29 13:54:33;;;;;;;;;;;;;;;17.92;53.66;100807.47;2277001;77;50758;-74
2023/04/29 13:57:34;;;;;;;;;;;;;;;17.93;53.65;100802.94;2277031;77;52500;-75
2023/04/29 14:00:37;;;;;;;;;;;;;;;17.92;53.63;100807.47;2298709;77;50463;-75
2023/04/29 14:03:39;;;;;;;;;;;;;;;17.93;53.64;100797.58;2298262;76;50728;-75
2023/04/29 14:06:42;;;;;;;;;;;;;;;17.93;53.60;100807.81;2326382;76;51678;-75
2023/04/29 14:09:45;;;;;;;;;;;;;;;17.94;53.65;100815.33;2341409;75;52540;-75
2023/04/29 14:12:47;;;;;;;;;;;;;;;17.92;53.66;100811.48;2341686;75;50724;-75
2023/04/29 14:15:49;;;;;;;;;;;;;;;17.93;53.66;100813.64;2337245;76;50624;-75
2023/04/29 14:18:50;;;;;;;;;;;;;;;17.93;53.65;100818.52;2337653;76;51528;-74
2023/04/29 14:21:52;;;;;;;;;;;;;;;17.95;53.61;100834.39;2341935;75;51501;-74
2023/04/29 14:24:54;;;;;;;;;;;;;;;17.92;53.66;100834.23;2341574;75;50783;-75
2023/04/29 14:27:55;;;;;;;;;;;;;;;17.94;53.63;100834.91;2337309;75;50806;-76
2023/04/29 14:30:57;;;;;;;;;;;;;;;17.93;53.64;100833.25;2337629;76;50736;-74
2023/04/29 14:33:59;;;;;;;;;;;;;;;17.93;53.66;100835.92;2314764;76;52534;-74
2023/04/29 14:37:01;;;;;;;;;;;;;;;17.93;53.67;100839.08;2331060;76;50712;-75
2023/04/29 14:40:03;;;;;;;;;;;;;;;17.93;53.63;100841.28;2301075;76;50390;-73
2023/04/29 14:43:05;;;;;;;;;;;;;;;17.94;53.63;100847.46;2335750;76;51651;-75
2023/04/29 14:46:07;;;;;;;;;;;;;;;17.95;53.61;100844.59;2275957;76;51795;-75
2023/04/29 14:49:08;;;;;;;;;;;;;;;17.93;53.64;100847.97;2335057;76;50459;-76
2023/04/29 14:52:10;;;;;;;;;;;;;;;17.94;53.64;100850.97;2301063;76;50586;-74
2023/04/29 14:55:12;;;;;;;;;;;;;;;17.95;53.62;100845.93;2334674;76;50449;-74
2023/04/29 14:58:14;;;;;;;;;;;;;;;17.98;53.54;100845.61;2300837;76;51800;-74
2023/04/29 15:01:16;;;;;;;;;;;;;;;18.00;53.50;100847.58;2301024;76;51436;-75
2023/04/29 15:04:17;;;;;;;;;;;;;;;18.03;53.41;100844.58;2297002;76;51522;-76
2023/04/29 15:07:20;;;;;;;;;;;;;;;18.02;53.44;100850.09;2293314;76;51223;-75
2023/04/29 15:10:22;;;;;;;;;;;;;;;18.02;53.44;100860.80;2314959;76;51020;-75
2023/04/29 15:13:23;;;;;;;;;;;;;;;18.02;53.43;100850.92;2341710;75;50779;-74
2023/04/29 15:16:27;;;;;;;;;;;;;;;18.03;53.42;100853.95;2337194;76;51576;-75
2023/04/29 15:19:28;;;;;;;;;;;;;;;18.00;53.49;100844.91;2337537;75;24012;-74
2023/04/29 15:22:30;;;;;;;;;;;;;;;17.99;53.54;100851.28;2314717;75;52435;-75
2023/04/29 15:25:34;;;;;;;;;;;;;;;17.98;53.57;100853.64;2341187;75;51458;-75
2023/04/29 15:28:36;;;;;;;;;;;;;;;17.99;53.57;100858.48;2341466;75;50697;-74
2023/04/29 15:31:38;;;;;;;;;;;;;;;17.97;53.58;100854.63;2341473;75;51529;-75
2023/04/29 15:34:40;;;;;;;;;;;;;;;17.95;53.67;100861.16;2308719;76;52368;-75